sensor_id;sensor_type;location;lat;lon;timestamp;pressure;altitude;pressure_sealevel;temperature;humidity
32761;BME280;19126;47.472;7.850;2022-09-09T00:00:20;96429.06;;;11.59;30.76
32761;BME280;19126;47.472;7.850;2022-09-09T00:02:57;96427.53;;;11.65;29.52
32761;BME280;19126;47.472;7.850;2022-09-09T00:05:33;96427.31;;;11.66;28.54
32761;BME280;19126;47.472;7.850;2022-09-09T00:08:03;96427.59;;;11.71;27.43
32761;BME280;19126;47.472;7.850;2022-09-09T00:10:36;96429.03;;;11.74;27.18
32761;BME280;19126;47.472;7.850;2022-09-09T00:13:15;96436.56;;;11.77;27.53
32761;BME280;19126;47.472;7.850;2022-09-09T00:15:54;96453.63;;;11.81;26.00
32761;BME280;19126;47.472;7.850;2022-09-09T00:18:28;96457.31;;;11.87;25.28
32761;BME280;19126;47.472;7.850;2022-09-09T00:21:05;96448.22;;;11.90;25.14
32761;BME280;19126;47.472;7.850;2022-09-09T00:23:37;96446.84;;;11.94;25.35
32761;BME280;19126;47.472;7.850;2022-09-09T00:26:08;96460.47;;;11.97;25.15
32761;BME280;19126;47.472;7.850;2022-09-09T00:28:43;96465.19;;;12.02;25.66
32761;BME280;19126;47.472;7.850;2022-09-09T00:31:18;96467.72;;;12.10;26.38
32761;BME280;19126;47.472;7.850;2022-09-09T00:33:49;96463.53;;;12.16;25.96
32761;BME280;19126;47.472;7.850;2022-09-09T00:36:20;96455.88;;;12.21;23.78
32761;BME280;19126;47.472;7.850;2022-09-09T00:38:52;96443.13;;;12.25;23.78
32761;BME280;19126;47.472;7.850;2022-09-09T00:41:28;96437.69;;;12.26;22.72
32761;BME280;19126;47.472;7.850;2022-09-09T00:44:03;96428.41;;;12.30;21.42
32761;BME280;19126;47.472;7.850;2022-09-09T00:47:04;96430.84;;;12.32;20.60
32761;BME280;19126;47.472;7.850;2022-09-09T00:49:45;96429.06;;;12.39;19.35
32761;BME280;19126;47.472;7.850;2022-09-09T00:52:29;96423.88;;;12.46;17.19
32761;BME280;19126;47.472;7.850;2022-09-09T00:55:07;96417.84;;;12.52;15.99
32761;BME280;19126;47.472;7.850;2022-09-09T00:57:38;96422.34;;;12.58;14.84
32761;BME280;19126;47.472;7.850;2022-09-09T01:00:22;96424.00;;;12.66;13.26
32761;BME280;19126;47.472;7.850;2022-09-09T01:03:07;96428.50;;;12.72;13.00
32761;BME280;19126;47.472;7.850;2022-09-09T01:05:44;96432.38;;;12.77;12.42
32761;BME280;19126;47.472;7.850;2022-09-09T01:11:14;96447.19;;;12.78;10.99
32761;BME280;19126;47.472;7.850;2022-09-09T01:13:44;96437.47;;;12.78;10.42
32761;BME280;19126;47.472;7.850;2022-09-09T01:16:12;96423.47;;;12.78;10.20
32761;BME280;19126;47.472;7.850;2022-09-09T01:18:49;96457.78;;;12.84;10.49
32761;BME280;19126;47.472;7.850;2022-09-09T01:21:27;96436.09;;;12.82;10.33
32761;BME280;19126;47.472;7.850;2022-09-09T01:24:22;96448.88;;;12.85;9.77
32761;BME280;19126;47.472;7.850;2022-09-09T01:26:55;96433.84;;;12.86;9.69
32761;BME280;19126;47.472;7.850;2022-09-09T01:29:24;96433.84;;;12.86;9.48
32761;BME280;19126;47.472;7.850;2022-09-09T01:31:55;96430.22;;;12.87;9.49
32761;BME280;19126;47.472;7.850;2022-09-09T01:34:24;96442.22;;;12.89;9.34
32761;BME280;19126;47.472;7.850;2022-09-09T01:36:59;96435.31;;;12.88;8.97
32761;BME280;19126;47.472;7.850;2022-09-09T01:39:30;96444.00;;;12.89;8.33
32761;BME280;19126;47.472;7.850;2022-09-09T01:42:00;96439.38;;;12.91;8.31
32761;BME280;19126;47.472;7.850;2022-09-09T01:44:30;96442.81;;;12.92;8.57
32761;BME280;19126;47.472;7.850;2022-09-09T01:46:57;96435.53;;;12.94;8.76
32761;BME280;19126;47.472;7.850;2022-09-09T01:49:25;96451.97;;;12.96;8.18
32761;BME280;19126;47.472;7.850;2022-09-09T01:51:54;96449.13;;;12.97;7.36
32761;BME280;19126;47.472;7.850;2022-09-09T01:54:24;96451.59;;;12.99;7.77
32761;BME280;19126;47.472;7.850;2022-09-09T01:57:02;96460.31;;;12.99;7.37
32761;BME280;19126;47.472;7.850;2022-09-09T01:59:58;96450.97;;;12.97;7.35
32761;BME280;19126;47.472;7.850;2022-09-09T02:02:32;96451.97;;;12.96;7.59
32761;BME280;19126;47.472;7.850;2022-09-09T02:05:14;96456.25;;;12.97;6.98
32761;BME280;19126;47.472;7.850;2022-09-09T02:07:48;96450.97;;;12.97;7.17
32761;BME280;19126;47.472;7.850;2022-09-09T02:10:20;96455.03;;;12.99;7.04
32761;BME280;19126;47.472;7.850;2022-09-09T02:12:55;96452.41;;;12.99;7.19
32761;BME280;19126;47.472;7.850;2022-09-09T02:15:32;96460.31;;;12.99;7.34
32761;BME280;19126;47.472;7.850;2022-09-09T02:18:05;96452.22;;;13.01;6.67
32761;BME280;19126;47.472;7.850;2022-09-09T02:20:36;96453.63;;;13.03;7.15
32761;BME280;19126;47.472;7.850;2022-09-09T02:23:04;96440.28;;;13.05;6.57
32761;BME280;19126;47.472;7.850;2022-09-09T02:25:34;96439.06;;;13.08;7.00
32761;BME280;19126;47.472;7.850;2022-09-09T02:28:06;96432.78;;;13.09;7.51
32761;BME280;19126;47.472;7.850;2022-09-09T02:30:36;96439.66;;;13.10;6.78
32761;BME280;19126;47.472;7.850;2022-09-09T02:33:07;96444.78;;;13.11;6.79
32761;BME280;19126;47.472;7.850;2022-09-09T02:35:36;96442.31;;;13.10;6.81
32761;BME280;19126;47.472;7.850;2022-09-09T02:38:09;96449.84;;;13.13;7.05
32761;BME280;19126;47.472;7.850;2022-09-09T02:40:37;96441.91;;;13.13;7.37
32761;BME280;19126;47.472;7.850;2022-09-09T02:43:06;96430.97;;;13.09;6.95
32761;BME280;19126;47.472;7.850;2022-09-09T02:45:42;96434.00;;;13.13;7.00
32761;BME280;19126;47.472;7.850;2022-09-09T02:48:17;96433.38;;;13.11;7.19
32761;BME280;19126;47.472;7.850;2022-09-09T02:50:57;96431.59;;;13.11;6.52
32761;BME280;19126;47.472;7.850;2022-09-09T02:53:36;96425.31;;;13.12;6.73
32761;BME280;19126;47.472;7.850;2022-09-09T02:56:11;96435.63;;;13.14;7.28
32761;BME280;19126;47.472;7.850;2022-09-09T02:58:42;96422.88;;;13.17;7.18
32761;BME280;19126;47.472;7.850;2022-09-09T03:01:10;96433.44;;;13.17;6.35
32761;BME280;19126;47.472;7.850;2022-09-09T03:03:37;96419.41;;;13.17;7.03
32761;BME280;19126;47.472;7.850;2022-09-09T03:06:05;96413.53;;;13.15;6.72
32761;BME280;19126;47.472;7.850;2022-09-09T03:08:32;96419.19;;;13.12;6.89
32761;BME280;19126;47.472;7.850;2022-09-09T03:11:00;96421.84;;;13.12;6.92
32761;BME280;19126;47.472;7.850;2022-09-09T03:13:28;96433.78;;;13.08;6.63
32761;BME280;19126;47.472;7.850;2022-09-09T03:15:56;96425.06;;;13.07;6.70
32761;BME280;19126;47.472;7.850;2022-09-09T03:18:23;96432.78;;;13.09;7.08
32761;BME280;19126;47.472;7.850;2022-09-09T03:20:51;96431.13;;;13.08;6.60
32761;BME280;19126;47.472;7.850;2022-09-09T03:23:20;96420.81;;;13.06;7.12
32761;BME280;19126;47.472;7.850;2022-09-09T03:25:48;96421.84;;;13.12;7.38
32761;BME280;19126;47.472;7.850;2022-09-09T03:28:17;96425.88;;;13.08;6.94
32761;BME280;19126;47.472;7.850;2022-09-09T03:30:44;96423.84;;;13.10;6.69
32761;BME280;19126;47.472;7.850;2022-09-09T03:33:12;96425.47;;;13.11;7.30
32761;BME280;19126;47.472;7.850;2022-09-09T03:35:45;96429.75;;;13.12;6.54
32761;BME280;19126;47.472;7.850;2022-09-09T03:38:14;96426.94;;;13.13;7.46
32761;BME280;19126;47.472;7.850;2022-09-09T03:40:49;96424.06;;;13.08;7.22
32761;BME280;19126;47.472;7.850;2022-09-09T03:43:17;96427.09;;;13.12;6.76
32761;BME280;19126;47.472;7.850;2022-09-09T03:45:46;96416.56;;;13.12;6.70
32761;BME280;19126;47.472;7.850;2022-09-09T03:48:15;96418.19;;;13.13;7.18
32761;BME280;19126;47.472;7.850;2022-09-09T03:50:45;96420.66;;;13.14;6.96
32761;BME280;19126;47.472;7.850;2022-09-09T03:53:12;96412.72;;;13.14;7.54
32761;BME280;19126;47.472;7.850;2022-09-09T03:55:44;96417.00;;;13.15;7.02
32761;BME280;19126;47.472;7.850;2022-09-09T03:58:11;96420.25;;;13.17;7.84
32761;BME280;19126;47.472;7.850;2022-09-09T04:00:39;96412.34;;;13.17;6.76
32761;BME280;19126;47.472;7.850;2022-09-09T04:03:08;96402.59;;;13.18;7.72
32761;BME280;19126;47.472;7.850;2022-09-09T04:05:38;96399.16;;;13.17;6.87
32761;BME280;19126;47.472;7.850;2022-09-09T04:08:08;96407.06;;;13.17;8.05
32761;BME280;19126;47.472;7.850;2022-09-09T04:10:35;96399.16;;;13.17;7.89
32761;BME280;19126;47.472;7.850;2022-09-09T04:13:03;96397.72;;;13.15;7.29
32761;BME280;19126;47.472;7.850;2022-09-09T04:15:30;96403.41;;;13.18;7.20
32761;BME280;19126;47.472;7.850;2022-09-09T04:17:58;96405.22;;;13.18;6.99
32761;BME280;19126;47.472;7.850;2022-09-09T04:20:25;96399.72;;;13.13;7.74
32761;BME280;19126;47.472;7.850;2022-09-09T04:22:53;96411.72;;;13.15;8.13
32761;BME280;19126;47.472;7.850;2022-09-09T04:25:20;96430.97;;;13.16;8.14
32761;BME280;19126;47.472;7.850;2022-09-09T04:27:48;96411.50;;;13.17;7.13
32761;BME280;19126;47.472;7.850;2022-09-09T04:30:19;96426.72;;;13.15;8.07
32761;BME280;19126;47.472;7.850;2022-09-09T04:32:46;96439.91;;;13.15;8.17
32761;BME280;19126;47.472;7.850;2022-09-09T04:35:14;96427.72;;;13.14;8.09
32761;BME280;19126;47.472;7.850;2022-09-09T04:37:41;96430.38;;;13.14;7.16
32761;BME280;19126;47.472;7.850;2022-09-09T04:40:10;96434.00;;;13.13;7.21
32761;BME280;19126;47.472;7.850;2022-09-09T04:42:38;96437.66;;;13.12;7.61
32761;BME280;19126;47.472;7.850;2022-09-09T04:45:10;96433.38;;;13.11;7.63
32761;BME280;19126;47.472;7.850;2022-09-09T04:47:39;96435.41;;;13.09;7.36
32761;BME280;19126;47.472;7.850;2022-09-09T04:50:08;96443.13;;;13.10;7.63
32761;BME280;19126;47.472;7.850;2022-09-09T04:52:35;96438.44;;;13.05;7.66
32761;BME280;19126;47.472;7.850;2022-09-09T04:55:04;96433.16;;;13.05;7.61
32761;BME280;19126;47.472;7.850;2022-09-09T04:57:34;96431.34;;;13.06;8.17
32761;BME280;19126;47.472;7.850;2022-09-09T05:00:02;96435.41;;;13.09;7.93
32761;BME280;19126;47.472;7.850;2022-09-09T05:02:29;96440.69;;;13.09;7.41
32761;BME280;19126;47.472;7.850;2022-09-09T05:04:57;96441.50;;;13.09;7.65
32761;BME280;19126;47.472;7.850;2022-09-09T05:07:27;96438.66;;;13.11;8.17
32761;BME280;19126;47.472;7.850;2022-09-09T05:09:54;96440.50;;;13.10;8.32
32761;BME280;19126;47.472;7.850;2022-09-09T05:12:22;96445.56;;;13.12;7.59
32761;BME280;19126;47.472;7.850;2022-09-09T05:14:52;96430.56;;;13.12;7.60
32761;BME280;19126;47.472;7.850;2022-09-09T05:17:20;96441.75;;;13.14;8.08
32761;BME280;19126;47.472;7.850;2022-09-09T05:19:47;96445.00;;;13.16;7.94
32761;BME280;19126;47.472;7.850;2022-09-09T05:22:19;96440.34;;;13.18;7.73
32761;BME280;19126;47.472;7.850;2022-09-09T05:24:47;96432.84;;;13.22;7.59
32761;BME280;19126;47.472;7.850;2022-09-09T05:27:16;96436.75;;;13.26;8.34
32761;BME280;19126;47.472;7.850;2022-09-09T05:29:45;96428.22;;;13.31;8.32
32761;BME280;19126;47.472;7.850;2022-09-09T05:32:13;96434.75;;;13.35;7.81
32761;BME280;19126;47.472;7.850;2022-09-09T05:34:42;96436.19;;;13.38;8.24
32761;BME280;19126;47.472;7.850;2022-09-09T05:37:09;96434.56;;;13.37;8.29
32761;BME280;19126;47.472;7.850;2022-09-09T05:39:36;96435.16;;;13.39;7.81
32761;BME280;19126;47.472;7.850;2022-09-09T05:42:05;96441.72;;;13.43;8.11
32761;BME280;19126;47.472;7.850;2022-09-09T05:44:32;96434.81;;;13.48;8.93
32761;BME280;19126;47.472;7.850;2022-09-09T05:46:59;96424.28;;;13.48;8.05
32761;BME280;19126;47.472;7.850;2022-09-09T05:49:27;96425.72;;;13.51;8.44
32761;BME280;19126;47.472;7.850;2022-09-09T05:51:55;96425.31;;;13.54;8.42
32761;BME280;19126;47.472;7.850;2022-09-09T05:54:22;96428.97;;;13.60;8.72
32761;BME280;19126;47.472;7.850;2022-09-09T05:56:49;96439.34;;;13.61;8.91
32761;BME280;19126;47.472;7.850;2022-09-09T05:59:18;96436.94;;;13.67;7.75
32761;BME280;19126;47.472;7.850;2022-09-09T06:01:45;96445.47;;;13.75;7.70
32761;BME280;19126;47.472;7.850;2022-09-09T06:04:13;96448.53;;;13.86;7.75
32761;BME280;19126;47.472;7.850;2022-09-09T06:06:42;96451.63;;;13.96;8.24
32761;BME280;19126;47.472;7.850;2022-09-09T06:09:09;96449.19;;;14.01;8.35
32761;BME280;19126;47.472;7.850;2022-09-09T06:11:39;96450.22;;;14.07;8.05
32761;BME280;19126;47.472;7.850;2022-09-09T06:14:06;96442.09;;;14.09;8.21
32761;BME280;19126;47.472;7.850;2022-09-09T06:16:35;96436.84;;;14.15;8.17
32761;BME280;19126;47.472;7.850;2022-09-09T06:19:03;96441.72;;;14.18;8.80
32761;BME280;19126;47.472;7.850;2022-09-09T06:21:32;96445.97;;;14.19;7.52
32761;BME280;19126;47.472;7.850;2022-09-09T06:24:04;96440.69;;;14.26;7.70
32761;BME280;19126;47.472;7.850;2022-09-09T06:26:32;96447.81;;;14.39;7.50
32761;BME280;19126;47.472;7.850;2022-09-09T06:29:01;96446.44;;;14.77;8.65
32761;BME280;19126;47.472;7.850;2022-09-09T06:31:31;96443.28;;;15.20;7.82
32761;BME280;19126;47.472;7.850;2022-09-09T06:34:00;96440.13;;;15.50;7.40
32761;BME280;19126;47.472;7.850;2022-09-09T06:36:29;96443.63;;;15.83;6.97
32761;BME280;19126;47.472;7.850;2022-09-09T06:38:57;96445.53;;;16.15;7.61
32761;BME280;19126;47.472;7.850;2022-09-09T06:41:28;96450.50;;;16.62;7.91
32761;BME280;19126;47.472;7.850;2022-09-09T06:43:56;96454.59;;;16.83;13.01
32761;BME280;19126;47.472;7.850;2022-09-09T06:46:27;96456.53;;;16.94;40.04
32761;BME280;19126;47.472;7.850;2022-09-09T06:48:56;96464.84;;;16.79;63.11
32761;BME280;19126;47.472;7.850;2022-09-09T06:51:27;96460.41;;;16.73;77.04
32761;BME280;19126;47.472;7.850;2022-09-09T06:53:56;96467.94;;;16.76;79.55
32761;BME280;19126;47.472;7.850;2022-09-09T06:56:27;96464.94;;;17.17;73.91
32761;BME280;19126;47.472;7.850;2022-09-09T06:58:56;96463.59;;;17.63;70.50
32761;BME280;19126;47.472;7.850;2022-09-09T07:01:27;96473.75;;;17.85;83.64
32761;BME280;19126;47.472;7.850;2022-09-09T07:03:56;96484.84;;;17.26;100.00
32761;BME280;19126;47.472;7.850;2022-09-09T07:06:26;96485.47;;;17.03;100.00
32761;BME280;19126;47.472;7.850;2022-09-09T07:08:54;96486.34;;;16.71;96.75
32761;BME280;19126;47.472;7.850;2022-09-09T07:11:25;96478.63;;;16.37;94.89
32761;BME280;19126;47.472;7.850;2022-09-09T07:13:53;96479.72;;;16.23;92.57
32761;BME280;19126;47.472;7.850;2022-09-09T07:16:22;96476.88;;;16.24;96.88
32761;BME280;19126;47.472;7.850;2022-09-09T07:18:51;96478.97;;;16.16;99.68
32761;BME280;19126;47.472;7.850;2022-09-09T07:21:18;96483.84;;;16.19;99.08
32761;BME280;19126;47.472;7.850;2022-09-09T07:23:46;96487.22;;;16.33;92.13
32761;BME280;19126;47.472;7.850;2022-09-09T07:26:18;96477.25;;;16.28;93.05
32761;BME280;19126;47.472;7.850;2022-09-09T07:28:48;96484.06;;;16.49;92.67
32761;BME280;19126;47.472;7.850;2022-09-09T07:31:17;96477.16;;;16.92;86.81
32761;BME280;19126;47.472;7.850;2022-09-09T07:33:46;96482.75;;;17.09;94.87
32761;BME280;19126;47.472;7.850;2022-09-09T07:36:16;96482.03;;;17.21;100.00
32761;BME280;19126;47.472;7.850;2022-09-09T07:38:45;96487.25;;;17.09;100.00
32761;BME280;19126;47.472;7.850;2022-09-09T07:41:16;96494.63;;;17.07;100.00
32761;BME280;19126;47.472;7.850;2022-09-09T07:43:47;96501.22;;;16.97;100.00
32761;BME280;19126;47.472;7.850;2022-09-09T07:46:17;96492.91;;;16.87;100.00
32761;BME280;19126;47.472;7.850;2022-09-09T07:48:45;96496.75;;;16.91;100.00
32761;BME280;19126;47.472;7.850;2022-09-09T07:51:15;96502.38;;;17.08;100.00
32761;BME280;19126;47.472;7.850;2022-09-09T07:53:44;96504.16;;;17.14;100.00
32761;BME280;19126;47.472;7.850;2022-09-09T07:56:14;96500.00;;;17.00;100.00
32761;BME280;19126;47.472;7.850;2022-09-09T07:58:44;96506.81;;;17.14;100.00
32761;BME280;19126;47.472;7.850;2022-09-09T08:01:17;96494.66;;;17.25;100.00
32761;BME280;19126;47.472;7.850;2022-09-09T08:03:45;96499.69;;;17.34;100.00
32761;BME280;19126;47.472;7.850;2022-09-09T08:06:13;96497.09;;;17.27;100.00
32761;BME280;19126;47.472;7.850;2022-09-09T08:08:41;96506.84;;;17.08;100.00
32761;BME280;19126;47.472;7.850;2022-09-09T08:11:11;96503.03;;;17.22;100.00
32761;BME280;19126;47.472;7.850;2022-09-09T08:13:41;96504.44;;;17.81;100.00
32761;BME280;19126;47.472;7.850;2022-09-09T08:16:11;96503.25;;;18.14;100.00
32761;BME280;19126;47.472;7.850;2022-09-09T08:18:40;96504.72;;;18.40;100.00
32761;BME280;19126;47.472;7.850;2022-09-09T08:21:10;96504.31;;;18.55;99.54
32761;BME280;19126;47.472;7.850;2022-09-09T08:23:39;96500.16;;;18.71;100.00
32761;BME280;19126;47.472;7.850;2022-09-09T08:26:10;96504.94;;;18.93;100.00
32761;BME280;19126;47.472;7.850;2022-09-09T08:28:38;96498.13;;;19.45;100.00
32761;BME280;19126;47.472;7.850;2022-09-09T08:31:08;96506.00;;;20.04;100.00
32761;BME280;19126;47.472;7.850;2022-09-09T08:33:36;96499.66;;;20.23;91.38
32761;BME280;19126;47.472;7.850;2022-09-09T08:36:08;96501.94;;;20.31;88.88
32761;BME280;19126;47.472;7.850;2022-09-09T08:38:36;96503.00;;;20.01;83.82
32761;BME280;19126;47.472;7.850;2022-09-09T08:44:41;96516.22;;;19.31;89.44
32761;BME280;19126;47.472;7.850;2022-09-09T08:47:19;96519.41;;;19.57;93.66
32761;BME280;19126;47.472;7.850;2022-09-09T08:52:55;96520.94;;;20.34;89.51
32761;BME280;19126;47.472;7.850;2022-09-09T08:55:33;96516.38;;;20.64;91.70
32761;BME280;19126;47.472;7.850;2022-09-09T08:58:13;96512.72;;;20.53;87.12
32761;BME280;19126;47.472;7.850;2022-09-09T09:00:59;96511.84;;;20.64;87.25
32761;BME280;19126;47.472;7.850;2022-09-09T09:03:37;96519.31;;;20.04;84.28
32761;BME280;19126;47.472;7.850;2022-09-09T09:06:21;96514.88;;;19.69;79.49
32761;BME280;19126;47.472;7.850;2022-09-09T09:09:00;96515.56;;;19.76;82.45
32761;BME280;19126;47.472;7.850;2022-09-09T09:11:36;96520.03;;;19.88;82.43
32761;BME280;19126;47.472;7.850;2022-09-09T09:14:11;96524.69;;;19.81;79.60
32761;BME280;19126;47.472;7.850;2022-09-09T09:16:50;96513.97;;;20.16;84.85
32761;BME280;19126;47.472;7.850;2022-09-09T09:19:19;96511.69;;;20.54;76.79
32761;BME280;19126;47.472;7.850;2022-09-09T09:21:53;96515.28;;;20.31;78.20
32761;BME280;19126;47.472;7.850;2022-09-09T09:24:30;96519.81;;;20.30;80.03
32761;BME280;19126;47.472;7.850;2022-09-09T09:27:12;96523.97;;;19.85;82.15
32761;BME280;19126;47.472;7.850;2022-09-09T09:29:40;96521.47;;;19.90;83.67
32761;BME280;19126;47.472;7.850;2022-09-09T09:32:13;96516.81;;;19.86;78.37
32761;BME280;19126;47.472;7.850;2022-09-09T09:34:42;96514.03;;;19.81;81.25
32761;BME280;19126;47.472;7.850;2022-09-09T09:37:16;96512.75;;;19.83;80.53
32761;BME280;19126;47.472;7.850;2022-09-09T09:39:46;96514.06;;;20.22;79.20
32761;BME280;19126;47.472;7.850;2022-09-09T09:42:17;96509.97;;;20.31;72.68
32761;BME280;19126;47.472;7.850;2022-09-09T09:44:44;96511.28;;;20.62;73.26
32761;BME280;19126;47.472;7.850;2022-09-09T09:47:14;96506.25;;;20.49;75.46
32761;BME280;19126;47.472;7.850;2022-09-09T09:49:52;96507.75;;;20.28;73.85
32761;BME280;19126;47.472;7.850;2022-09-09T09:52:23;96509.38;;;20.29;74.89
32761;BME280;19126;47.472;7.850;2022-09-09T09:54:53;96503.75;;;20.42;70.10
32761;BME280;19126;47.472;7.850;2022-09-09T09:57:26;96508.06;;;20.94;71.72
32761;BME280;19126;47.472;7.850;2022-09-09T10:00:04;96506.66;;;20.87;68.87
32761;BME280;19126;47.472;7.850;2022-09-09T10:02:41;96509.94;;;21.11;68.04
32761;BME280;19126;47.472;7.850;2022-09-09T10:05:15;96496.56;;;20.60;65.59
32761;BME280;19126;47.472;7.850;2022-09-09T10:07:44;96496.19;;;20.85;68.14
32761;BME280;19126;47.472;7.850;2022-09-09T10:10:19;96491.38;;;20.53;68.32
32761;BME280;19126;47.472;7.850;2022-09-09T10:13:04;96495.06;;;20.98;68.61
32761;BME280;19126;47.472;7.850;2022-09-09T10:15:43;96493.00;;;21.84;71.58
32761;BME280;19126;47.472;7.850;2022-09-09T10:18:38;96489.31;;;22.13;65.25
32761;BME280;19126;47.472;7.850;2022-09-09T10:21:28;96467.91;;;22.40;62.42
32761;BME280;19126;47.472;7.850;2022-09-09T10:24:15;96478.47;;;22.52;64.95
32761;BME280;19126;47.472;7.850;2022-09-09T10:26:55;96480.28;;;22.46;61.32
32761;BME280;19126;47.472;7.850;2022-09-09T10:29:48;96479.03;;;22.87;62.57
32761;BME280;19126;47.472;7.850;2022-09-09T10:32:41;96477.09;;;22.82;62.36
32761;BME280;19126;47.472;7.850;2022-09-09T10:35:24;96476.81;;;23.21;66.63
32761;BME280;19126;47.472;7.850;2022-09-09T10:38:11;96479.66;;;22.66;60.35
32761;BME280;19126;47.472;7.850;2022-09-09T10:40:46;96475.25;;;22.82;59.70
32761;BME280;19126;47.472;7.850;2022-09-09T10:43:30;96469.97;;;22.93;58.95
32761;BME280;19126;47.472;7.850;2022-09-09T10:46:10;96471.75;;;22.82;59.50
32761;BME280;19126;47.472;7.850;2022-09-09T10:48:55;96465.78;;;22.69;63.13
32761;BME280;19126;47.472;7.850;2022-09-09T10:51:36;96467.25;;;22.88;59.47
32761;BME280;19126;47.472;7.850;2022-09-09T10:54:35;96465.53;;;22.71;56.81
32761;BME280;19126;47.472;7.850;2022-09-09T10:57:13;96468.44;;;23.07;59.24
32761;BME280;19126;47.472;7.850;2022-09-09T10:59:50;96462.59;;;23.10;56.34
32761;BME280;19126;47.472;7.850;2022-09-09T11:02:27;96455.09;;;23.12;58.92
32761;BME280;19126;47.472;7.850;2022-09-09T11:05:00;96456.31;;;23.37;59.20
32761;BME280;19126;47.472;7.850;2022-09-09T11:07:36;96438.25;;;23.86;56.42
32761;BME280;19126;47.472;7.850;2022-09-09T11:10:16;96443.41;;;23.98;54.67
32761;BME280;19126;47.472;7.850;2022-09-09T11:12:47;96438.63;;;24.10;55.53
32761;BME280;19126;47.472;7.850;2022-09-09T11:15:23;96438.09;;;24.19;54.11
32761;BME280;19126;47.472;7.850;2022-09-09T11:17:56;96433.19;;;23.90;53.25
32761;BME280;19126;47.472;7.850;2022-09-09T11:20:23;96424.22;;;23.05;52.17
32761;BME280;19126;47.472;7.850;2022-09-09T11:22:58;96423.00;;;22.80;52.45
32761;BME280;19126;47.472;7.850;2022-09-09T11:25:32;96430.44;;;22.73;53.67
32761;BME280;19126;47.472;7.850;2022-09-09T11:28:32;96426.84;;;22.94;56.13
32761;BME280;19126;47.472;7.850;2022-09-09T11:31:32;96433.59;;;23.55;55.80
32761;BME280;19126;47.472;7.850;2022-09-09T11:34:30;96424.09;;;23.27;52.30
32761;BME280;19126;47.472;7.850;2022-09-09T11:37:24;96436.31;;;23.07;48.33
32761;BME280;19126;47.472;7.850;2022-09-09T11:40:19;96431.78;;;22.70;52.53
32761;BME280;19126;47.472;7.850;2022-09-09T11:42:47;96417.66;;;22.47;54.13
32761;BME280;19126;47.472;7.850;2022-09-09T11:45:25;96432.59;;;22.10;53.27
32761;BME280;19126;47.472;7.850;2022-09-09T11:47:58;96430.50;;;22.18;53.57
32761;BME280;19126;47.472;7.850;2022-09-09T11:50:36;96442.97;;;22.34;52.46
32761;BME280;19126;47.472;7.850;2022-09-09T11:53:19;96441.25;;;22.88;52.06
32761;BME280;19126;47.472;7.850;2022-09-09T11:56:01;96443.94;;;22.88;51.71
32761;BME280;19126;47.472;7.850;2022-09-09T11:58:36;96443.75;;;22.62;50.13
32761;BME280;19126;47.472;7.850;2022-09-09T12:01:29;96432.53;;;22.65;52.29
32761;BME280;19126;47.472;7.850;2022-09-09T12:04:32;96439.19;;;22.58;55.16
32761;BME280;19126;47.472;7.850;2022-09-09T12:07:05;96440.44;;;22.50;54.21
32761;BME280;19126;47.472;7.850;2022-09-09T12:09:51;96439.38;;;22.51;58.77
32761;BME280;19126;47.472;7.850;2022-09-09T12:12:30;96430.00;;;22.86;58.97
32761;BME280;19126;47.472;7.850;2022-09-09T12:15:03;96435.88;;;22.83;59.82
32761;BME280;19126;47.472;7.850;2022-09-09T12:17:45;96434.22;;;22.77;62.28
32761;BME280;19126;47.472;7.850;2022-09-09T12:20:17;96429.28;;;22.58;62.90
32761;BME280;19126;47.472;7.850;2022-09-09T12:28:44;96425.88;;;22.08;61.34
32761;BME280;19126;47.472;7.850;2022-09-09T12:31:18;96427.38;;;21.99;64.17
32761;BME280;19126;47.472;7.850;2022-09-09T12:33:48;96432.16;;;21.96;64.20
32761;BME280;19126;47.472;7.850;2022-09-09T12:36:19;96428.94;;;22.22;62.77
32761;BME280;19126;47.472;7.850;2022-09-09T12:38:49;96422.81;;;22.54;63.37
32761;BME280;19126;47.472;7.850;2022-09-09T12:41:21;96428.69;;;22.51;59.23
32761;BME280;19126;47.472;7.850;2022-09-09T12:43:49;96428.31;;;22.09;58.72
32761;BME280;19126;47.472;7.850;2022-09-09T12:46:25;96420.88;;;22.17;61.14
32761;BME280;19126;47.472;7.850;2022-09-09T12:48:57;96422.91;;;22.37;67.85
32761;BME280;19126;47.472;7.850;2022-09-09T12:51:28;96430.19;;;22.42;59.98
32761;BME280;19126;47.472;7.850;2022-09-09T12:53:57;96432.22;;;22.29;55.57
32761;BME280;19126;47.472;7.850;2022-09-09T12:56:27;96429.53;;;22.29;62.14
32761;BME280;19126;47.472;7.850;2022-09-09T12:58:58;96435.03;;;22.17;65.48
32761;BME280;19126;47.472;7.850;2022-09-09T13:01:29;96428.09;;;21.89;63.07
32761;BME280;19126;47.472;7.850;2022-09-09T13:03:57;96434.03;;;21.69;66.88
32761;BME280;19126;47.472;7.850;2022-09-09T13:06:28;96431.28;;;21.41;68.25
32761;BME280;19126;47.472;7.850;2022-09-09T13:08:58;96438.78;;;21.22;66.05
32761;BME280;19126;47.472;7.850;2022-09-09T13:11:30;96429.78;;;21.28;67.91
32761;BME280;19126;47.472;7.850;2022-09-09T13:13:58;96434.25;;;21.22;66.62
32761;BME280;19126;47.472;7.850;2022-09-09T13:16:28;96437.97;;;21.21;68.09
32761;BME280;19126;47.472;7.850;2022-09-09T13:18:58;96435.47;;;21.15;68.95
32761;BME280;19126;47.472;7.850;2022-09-09T13:21:34;96452.34;;;20.98;70.26
32761;BME280;19126;47.472;7.850;2022-09-09T13:24:04;96453.97;;;20.82;71.18
32761;BME280;19126;47.472;7.850;2022-09-09T13:26:34;96440.03;;;20.63;76.50
32761;BME280;19126;47.472;7.850;2022-09-09T13:29:15;96430.56;;;20.21;90.03
32761;BME280;19126;47.472;7.850;2022-09-09T13:31:44;96427.25;;;20.31;85.48
32761;BME280;19126;47.472;7.850;2022-09-09T13:34:13;96422.91;;;20.25;78.98
32761;BME280;19126;47.472;7.850;2022-09-09T13:36:46;96421.28;;;20.58;83.25
32761;BME280;19126;47.472;7.850;2022-09-09T13:39:16;96423.38;;;20.73;83.56
32761;BME280;19126;47.472;7.850;2022-09-09T13:41:45;96428.53;;;20.97;80.34
32761;BME280;19126;47.472;7.850;2022-09-09T13:44:20;96417.84;;;20.97;70.41
32761;BME280;19126;47.472;7.850;2022-09-09T13:47:01;96415.31;;;21.07;75.09